Thomson Spirit — 9HA2336 — position and weather

sailwx.info

Track history (hours):
 
Tides and Currents Weather Stations Pressure Air Temp Water Temp Dewpoint Dewpoint Depression Visibility Wind Speed Wind Dir Waves Ship Positions

Thomson Spirit

Last reported at 2014-Jul-23 06:27 UTC. Time now 2014-Jul-23 11:27 UTC.
Position N 65°30' E 012°12'.

Length 214 m; draft 7.8 m.

Type: Passenger vessel. MMSI: 248368000.

Date/timePositionNaut miles runAvg speedWind from/ knotsBaromVisibWave heightAir tempDewpointWater temp
2014-Jul-23 06:27N 65°30' E 012°12'4214.4
2014-Jul-23 03:33N 66°10' E 012°39'1313.1
2014-Jul-23 02:33N 66°18' E 012°14'1413.5
2014-Jul-23 01:33N 66°27' E 011°50'1514.9
2014-Jul-23 00:33N 66°42' E 012°02'1515.4
2014-Jul-22 23:33N 66°55' E 012°18'1615.5
2014-Jul-22 22:33N 67°10' E 012°34'2115.7
2014-Jul-22 21:12N 67°29' E 012°56'19 1.2
2014-Jul-22 04:26N 67°48' E 012°56'  
2014-Jul-17 00:33N 70°43' E 023°31'1615.7
2014-Jul-16 23:30N 70°31' E 022°58'  
Track history (hours):
 
Tides and Currents Weather Stations Pressure Air Temp Water Temp Dewpoint Dewpoint Depression Visibility Wind Speed Wind Dir Waves Ship Positions

Thomson Spirit

Last reported at 2014-Jul-23 06:27 UTC. Time now 2014-Jul-23 11:27 UTC.
Position N 65°30' E 012°12'.

Length 214 m; draft 7.8 m.

Type: Passenger vessel. MMSI: 248368000.

Date/timePositionNaut miles runAvg speedWind from/ knotsBaromVisibWave heightAir tempDewpointWater temp
2014-Jul-23 06:27N 65°30' E 012°12'4214.4
2014-Jul-23 03:33N 66°10' E 012°39'1313.1
2014-Jul-23 02:33N 66°18' E 012°14'1413.5
2014-Jul-23 01:33N 66°27' E 011°50'1514.9
2014-Jul-23 00:33N 66°42' E 012°02'1515.4
2014-Jul-22 23:33N 66°55' E 012°18'1615.5
2014-Jul-22 22:33N 67°10' E 012°34'2115.7
2014-Jul-22 21:12N 67°29' E 012°56'19 1.2
2014-Jul-22 04:26N 67°48' E 012°56'  
2014-Jul-17 00:33N 70°43' E 023°31'1615.7
2014-Jul-16 23:30N 70°31' E 022°58'  

Dump ship's entire track history